createdAt,value
2018-07-22T00:00:14.828Z,75.40
2018-07-22T00:02:43.512Z,75.48
2018-07-22T00:05:12.181Z,74.81
2018-07-22T00:07:40.868Z,74.45
2018-07-22T00:10:20.600Z,73.25
2018-07-22T00:12:49.321Z,73.71
2018-07-22T00:15:18.005Z,73.67
2018-07-22T00:17:46.667Z,73.92
2018-07-22T00:20:15.418Z,74.82
2018-07-22T00:22:44.207Z,75.16
2018-07-22T00:25:12.847Z,75.57
2018-07-22T00:27:41.510Z,76.02
2018-07-22T00:30:10.383Z,75.78
2018-07-22T00:32:40.305Z,75.16
2018-07-22T00:35:09.327Z,74.87
2018-07-22T00:37:38.441Z,74.36
2018-07-22T00:40:07.916Z,74.58
2018-07-22T00:42:36.847Z,75.01
2018-07-22T00:45:06.245Z,74.67
2018-07-22T00:47:34.937Z,73.92
2018-07-22T00:50:03.823Z,73.61
2018-07-22T00:52:32.496Z,71.86
2018-07-22T00:55:01.176Z,70.39
2018-07-22T00:57:29.872Z,71.22
2018-07-22T00:59:58.595Z,72.10
2018-07-22T01:02:27.320Z,72.42
2018-07-22T01:04:55.992Z,70.94
2018-07-22T01:07:24.727Z,69.96
2018-07-22T01:09:53.440Z,68.95
2018-07-22T01:12:22.372Z,69.26
2018-07-22T01:14:51.022Z,67.26
2018-07-22T01:17:19.743Z,67.59
2018-07-22T01:19:48.398Z,67.33
2018-07-22T01:22:17.258Z,67.04
2018-07-22T01:24:45.960Z,66.73
2018-07-22T01:27:14.689Z,66.33
2018-07-22T01:29:43.356Z,65.96
2018-07-22T01:32:12.031Z,66.23
2018-07-22T01:34:40.673Z,65.80
2018-07-22T01:37:09.355Z,65.49
2018-07-22T01:39:37.995Z,64.74
2018-07-22T01:42:06.689Z,65.43
2018-07-22T01:44:35.418Z,64.58
2018-07-22T01:47:04.108Z,64.14
2018-07-22T01:49:32.767Z,64.66
2018-07-22T01:52:01.409Z,64.10
2018-07-22T01:54:30.073Z,64.16
2018-07-22T01:56:58.725Z,63.82
2018-07-22T01:59:27.401Z,64.13
2018-07-22T02:01:56.078Z,63.84
2018-07-22T02:04:24.939Z,64.05
2018-07-22T02:06:53.600Z,64.27
2018-07-22T02:09:22.270Z,64.43
2018-07-22T02:11:50.932Z,64.49
2018-07-22T02:14:19.598Z,64.81
2018-07-22T02:16:48.240Z,64.13
2018-07-22T02:19:16.912Z,64.17
2018-07-22T02:21:45.556Z,64.66
2018-07-22T02:24:14.247Z,64.52
2018-07-22T02:26:42.891Z,64.37
2018-07-22T02:29:11.672Z,64.57
2018-07-22T02:31:40.353Z,64.32
2018-07-22T02:34:09.056Z,64.56
2018-07-22T02:36:37.732Z,64.75
2018-07-22T02:39:09.020Z,64.54
2018-07-22T02:41:37.696Z,64.97
2018-07-22T02:44:06.452Z,65.32
2018-07-22T02:46:35.182Z,66.02
2018-07-22T02:49:03.849Z,65.87
2018-07-22T02:51:32.506Z,66.01
2018-07-22T02:54:01.253Z,66.26
2018-07-22T02:56:29.909Z,65.67
2018-07-22T02:58:58.647Z,65.41
2018-07-22T03:01:27.308Z,65.25
2018-07-22T03:03:55.997Z,65.25
2018-07-22T03:06:24.635Z,65.54
2018-07-22T03:08:53.308Z,65.19
2018-07-22T03:11:21.956Z,65.30
2018-07-22T03:13:50.628Z,66.11
2018-07-22T03:16:19.319Z,65.04
2018-07-22T03:18:47.989Z,65.06
2018-07-22T03:21:16.638Z,65.86
2018-07-22T03:23:45.310Z,66.13
2018-07-22T03:26:13.963Z,66.34
2018-07-22T03:28:42.627Z,65.96
2018-07-22T03:31:11.321Z,66.44
2018-07-22T03:33:39.994Z,66.77
2018-07-22T03:36:08.640Z,66.26
2018-07-22T03:38:37.295Z,65.65
2018-07-22T03:41:06.035Z,65.69
2018-07-22T03:43:34.707Z,65.17
2018-07-22T03:46:03.381Z,65.41
2018-07-22T03:48:32.079Z,65.97
2018-07-22T03:51:00.731Z,66.67
2018-07-22T03:53:29.407Z,65.67
2018-07-22T03:55:58.244Z,65.63
2018-07-22T03:58:26.921Z,65.71
2018-07-22T04:00:55.572Z,66.45
2018-07-22T04:03:24.248Z,65.78
2018-07-22T04:05:52.916Z,65.62
2018-07-22T04:08:21.573Z,65.67
2018-07-22T04:10:50.240Z,65.72
2018-07-22T04:13:18.899Z,65.55
2018-07-22T04:15:47.567Z,65.55
2018-07-22T04:18:16.218Z,65.57
2018-07-22T04:20:44.904Z,65.66
2018-07-22T04:23:13.556Z,65.34
2018-07-22T04:25:42.214Z,65.48
2018-07-22T04:28:10.853Z,65.64
2018-07-22T04:30:39.532Z,65.81
2018-07-22T04:33:08.193Z,66.09
2018-07-22T04:35:36.860Z,65.71
2018-07-22T04:38:06.034Z,65.97
2018-07-22T04:40:34.701Z,66.19
2018-07-22T04:43:03.376Z,66.06
2018-07-22T04:45:32.090Z,65.79
2018-07-22T04:48:00.744Z,65.22
2018-07-22T04:50:29.404Z,65.64
2018-07-22T04:52:58.068Z,65.38
2018-07-22T04:55:26.769Z,65.75
2018-07-22T04:57:55.432Z,65.18
2018-07-22T05:00:24.132Z,65.16
2018-07-22T05:02:52.803Z,64.65
2018-07-22T05:05:21.509Z,63.91
2018-07-22T05:07:50.148Z,63.86
2018-07-22T05:10:18.844Z,63.61
2018-07-22T05:12:47.486Z,63.24
2018-07-22T05:15:16.142Z,64.01
2018-07-22T05:17:44.801Z,63.88
2018-07-22T05:20:13.483Z,63.28
2018-07-22T05:22:42.139Z,62.73
2018-07-22T05:25:10.804Z,62.79
2018-07-22T05:27:39.444Z,62.87
2018-07-22T05:30:08.101Z,61.40
2018-07-22T05:32:36.757Z,60.93
2018-07-22T05:35:05.474Z,61.12
2018-07-22T05:37:34.150Z,62.35
2018-07-22T05:40:02.851Z,62.52
2018-07-22T05:42:31.504Z,61.95
2018-07-22T05:45:00.211Z,62.06
2018-07-22T05:47:28.869Z,61.69
2018-07-22T05:49:57.532Z,62.03
2018-07-22T05:52:26.184Z,61.33
2018-07-22T05:54:54.911Z,62.03
2018-07-22T05:57:23.578Z,62.30
2018-07-22T05:59:52.215Z,62.70
2018-07-22T06:02:20.913Z,61.09
2018-07-22T06:04:49.817Z,62.29
2018-07-22T06:07:18.496Z,61.81
2018-07-22T06:09:47.174Z,60.82
2018-07-22T06:12:15.857Z,60.58
2018-07-22T06:14:44.521Z,61.67
2018-07-22T06:17:13.220Z,60.43
2018-07-22T06:19:41.893Z,60.40
2018-07-22T06:22:10.568Z,61.03
2018-07-22T06:24:39.245Z,60.68
2018-07-22T06:27:08.116Z,60.32
2018-07-22T06:29:36.762Z,60.17
2018-07-22T06:32:05.635Z,60.56
2018-07-22T06:34:34.323Z,61.06
2018-07-22T06:37:03.151Z,60.26
2018-07-22T06:39:31.792Z,59.67
2018-07-22T06:42:00.464Z,59.98
2018-07-22T06:44:29.121Z,60.45
2018-07-22T06:46:57.778Z,60.71
2018-07-22T06:49:26.427Z,60.48
2018-07-22T06:51:55.101Z,61.13
2018-07-22T06:54:23.773Z,60.81
2018-07-22T06:56:52.451Z,61.07
2018-07-22T06:59:21.153Z,61.51
2018-07-22T07:01:49.826Z,61.21
2018-07-22T07:04:18.511Z,60.38
2018-07-22T07:06:47.186Z,59.38
2018-07-22T07:09:15.832Z,58.40
2018-07-22T07:11:44.510Z,58.39
2018-07-22T07:14:13.165Z,59.08
2018-07-22T07:16:41.832Z,58.23
2018-07-22T07:19:10.483Z,58.12
2018-07-22T07:21:39.169Z,58.14
2018-07-22T07:24:07.919Z,58.42
2018-07-22T07:26:36.613Z,58.61
2018-07-22T07:29:05.380Z,58.56
2018-07-22T07:31:34.048Z,58.34
2018-07-22T07:34:02.723Z,57.73
2018-07-22T07:36:31.418Z,57.55
2018-07-22T07:39:00.063Z,57.54
2018-07-22T07:41:28.744Z,57.62
2018-07-22T07:43:57.387Z,56.31
2018-07-22T07:46:26.045Z,56.87
2018-07-22T07:48:54.689Z,56.13
2018-07-22T07:51:23.358Z,54.46
2018-07-22T07:53:52.114Z,54.73
2018-07-22T07:56:20.773Z,54.29
2018-07-22T07:58:49.409Z,53.80
2018-07-22T08:01:18.152Z,54.15
2018-07-22T08:03:46.822Z,53.81
2018-07-22T08:06:15.491Z,54.44
2018-07-22T08:08:44.138Z,55.03
2018-07-22T08:11:12.783Z,54.21
2018-07-22T08:13:41.465Z,53.69
2018-07-22T08:16:10.108Z,53.77
2018-07-22T08:18:38.840Z,52.70
2018-07-22T08:21:07.513Z,51.77
2018-07-22T08:23:36.208Z,52.28
2018-07-22T08:26:05.019Z,52.45
2018-07-22T08:28:44.636Z,52.10
2018-07-22T08:31:13.290Z,51.71
2018-07-22T08:33:41.972Z,50.49
2018-07-22T08:36:10.608Z,50.85
2018-07-22T08:38:39.287Z,51.77
2018-07-22T08:41:07.983Z,52.10
2018-07-22T08:43:36.655Z,52.15
2018-07-22T08:46:05.332Z,51.53
2018-07-22T08:48:34.011Z,52.06
2018-07-22T08:51:02.677Z,50.13
2018-07-22T08:53:31.375Z,50.59
2018-07-22T08:56:00.023Z,50.84
2018-07-22T08:58:28.743Z,50.20
2018-07-22T09:00:57.386Z,50.74
2018-07-22T09:03:26.076Z,49.56
2018-07-22T09:05:54.744Z,49.28
2018-07-22T09:08:23.411Z,50.55
2018-07-22T09:10:52.055Z,50.29
2018-07-22T09:13:20.712Z,50.27
2018-07-22T09:15:49.361Z,49.93
2018-07-22T09:18:18.017Z,50.17
2018-07-22T09:20:46.684Z,49.15
2018-07-22T09:23:15.344Z,48.85
2018-07-22T09:25:43.997Z,48.33
2018-07-22T09:28:12.673Z,47.36
2018-07-22T09:30:41.317Z,47.69
2018-07-22T09:33:09.989Z,46.75
2018-07-22T09:35:38.640Z,45.80
2018-07-22T09:38:07.308Z,45.90
2018-07-22T09:40:35.954Z,46.42
2018-07-22T09:43:04.663Z,46.17
2018-07-22T09:45:33.295Z,44.66
2018-07-22T09:48:01.994Z,43.67
2018-07-22T09:50:30.658Z,44.28
2018-07-22T09:52:59.364Z,44.07
2018-07-22T09:55:28.035Z,44.90
2018-07-22T09:57:56.712Z,44.11
2018-07-22T10:00:30.647Z,44.88
2018-07-22T10:02:59.315Z,44.75
2018-07-22T10:05:27.983Z,43.75
2018-07-22T10:07:56.647Z,41.63
2018-07-22T10:10:25.297Z,42.40
2018-07-22T10:12:53.957Z,42.53
2018-07-22T10:15:22.590Z,40.06
2018-07-22T10:17:51.253Z,41.60
2018-07-22T10:20:19.897Z,39.81
2018-07-22T10:22:48.581Z,40.11
2018-07-22T10:25:17.243Z,39.65
2018-07-22T10:27:45.902Z,39.88
2018-07-22T10:30:14.582Z,38.80
2018-07-22T10:32:43.238Z,38.61
2018-07-22T10:35:11.931Z,36.11
2018-07-22T10:37:40.611Z,38.51
2018-07-22T10:40:09.277Z,39.72
2018-07-22T10:42:37.957Z,38.77
2018-07-22T10:45:06.626Z,38.07
2018-07-22T10:47:35.272Z,36.96
2018-07-22T10:50:04.046Z,37.67
2018-07-22T10:52:32.714Z,37.01
2018-07-22T10:55:01.395Z,36.90
2018-07-22T10:57:30.057Z,35.71
2018-07-22T10:59:58.708Z,34.91
2018-07-22T11:02:27.426Z,35.20
2018-07-22T11:04:56.154Z,36.57
2018-07-22T11:07:24.812Z,35.95
2018-07-22T11:09:53.872Z,37.04
2018-07-22T11:12:22.563Z,37.43
2018-07-22T11:14:51.408Z,36.11
2018-07-22T11:17:19.965Z,36.58
2018-07-22T11:19:48.642Z,36.49
2018-07-22T11:22:17.274Z,35.63
2018-07-22T11:24:45.966Z,36.61
2018-07-22T11:27:14.609Z,36.64
2018-07-22T11:29:43.251Z,36.35
2018-07-22T11:32:11.929Z,36.46
2018-07-22T11:34:40.704Z,36.97
2018-07-22T11:37:09.376Z,35.87
2018-07-22T11:39:38.036Z,36.44
2018-07-22T11:42:06.742Z,36.18
2018-07-22T11:44:35.408Z,36.38
2018-07-22T11:47:04.059Z,37.33
2018-07-22T11:49:32.719Z,37.21
2018-07-22T11:52:01.357Z,37.38
2018-07-22T11:54:30.028Z,37.34
2018-07-22T11:56:58.685Z,37.84
2018-07-22T11:59:27.348Z,36.47
2018-07-22T12:01:56.060Z,37.33
2018-07-22T12:04:24.744Z,37.62
2018-07-22T12:06:53.395Z,37.62
2018-07-22T12:09:22.905Z,38.06
2018-07-22T12:11:51.549Z,37.42
2018-07-22T12:14:20.199Z,37.27
2018-07-22T12:16:48.848Z,37.72
2018-07-22T12:19:17.500Z,39.38
2018-07-22T12:21:46.143Z,39.23
2018-07-22T12:24:14.805Z,38.66
2018-07-22T12:26:43.460Z,37.66
2018-07-22T12:29:12.153Z,37.10
2018-07-22T12:31:40.828Z,37.47
2018-07-22T12:34:09.507Z,35.96
2018-07-22T12:36:38.144Z,36.23
2018-07-22T12:39:10.060Z,35.96
2018-07-22T12:41:38.717Z,37.05
2018-07-22T12:44:07.373Z,36.98
2018-07-22T12:46:36.332Z,36.51
2018-07-22T12:49:05.121Z,35.53
2018-07-22T12:51:33.896Z,34.97
2018-07-22T12:54:02.549Z,35.30
2018-07-22T12:56:31.214Z,34.89
2018-07-22T12:59:00.345Z,36.38
2018-07-22T13:01:29.387Z,36.68
2018-07-22T13:03:58.047Z,37.29
2018-07-22T13:06:26.722Z,38.14
2018-07-22T13:08:55.389Z,38.85
2018-07-22T13:11:24.056Z,37.04
2018-07-22T13:13:52.690Z,36.28
2018-07-22T13:16:21.347Z,35.46
2018-07-22T13:18:49.999Z,35.52
2018-07-22T13:21:18.680Z,35.90
2018-07-22T13:23:47.345Z,36.28
2018-07-22T13:26:16.019Z,36.82
2018-07-22T13:28:44.678Z,35.85
2018-07-22T13:31:13.339Z,34.83
2018-07-22T13:33:42.001Z,34.27
2018-07-22T13:36:10.663Z,34.43
2018-07-22T13:38:39.311Z,34.52
2018-07-22T13:41:07.970Z,36.33
2018-07-22T13:43:36.594Z,36.45
2018-07-22T13:46:05.317Z,36.69
2018-07-22T13:48:33.948Z,37.01
2018-07-22T13:51:02.636Z,34.99
2018-07-22T13:53:31.268Z,35.29
2018-07-22T13:55:59.933Z,35.55
2018-07-22T13:58:28.582Z,36.38
2018-07-22T14:00:57.253Z,36.80
2018-07-22T14:03:25.903Z,36.77
2018-07-22T14:05:54.551Z,37.76
2018-07-22T14:08:23.209Z,37.76
2018-07-22T14:10:51.862Z,37.33
2018-07-22T14:13:20.504Z,37.29
2018-07-22T14:15:49.172Z,37.66
2018-07-22T14:18:17.829Z,37.86
2018-07-22T14:20:46.481Z,37.71
2018-07-22T14:23:15.120Z,36.84
2018-07-22T14:25:43.793Z,36.42
2018-07-22T14:28:12.452Z,35.66
2018-07-22T14:30:41.166Z,35.31
2018-07-22T14:33:09.806Z,35.07
2018-07-22T14:35:38.469Z,35.54
2018-07-22T14:38:07.325Z,34.70
2018-07-22T14:40:36.015Z,35.38
2018-07-22T14:43:04.669Z,35.76
2018-07-22T14:45:33.339Z,35.88
2018-07-22T14:48:01.979Z,36.13
2018-07-22T14:50:30.630Z,36.67
2018-07-22T14:52:59.285Z,37.46
2018-07-22T14:55:27.921Z,37.81
2018-07-22T14:57:56.588Z,38.23
2018-07-22T15:00:25.293Z,38.84
2018-07-22T15:02:53.939Z,38.83
2018-07-22T15:05:22.596Z,37.28
2018-07-22T15:07:51.253Z,36.96
2018-07-22T15:10:19.984Z,36.66
2018-07-22T15:12:48.642Z,36.95
2018-07-22T15:15:17.280Z,38.46
2018-07-22T15:17:45.958Z,38.78
2018-07-22T15:20:14.596Z,40.10
2018-07-22T15:22:43.279Z,40.24
2018-07-22T15:25:11.930Z,40.24
2018-07-22T15:27:40.623Z,40.55
2018-07-22T15:30:09.302Z,40.29
2018-07-22T15:32:37.979Z,40.34
2018-07-22T15:35:06.688Z,40.68
2018-07-22T15:37:35.328Z,41.17
2018-07-22T15:40:04.245Z,40.39
2018-07-22T15:42:32.914Z,40.40
2018-07-22T15:45:01.546Z,41.04
2018-07-22T15:47:30.207Z,40.91
2018-07-22T15:49:58.838Z,39.99
2018-07-22T15:52:27.487Z,38.58
2018-07-22T15:54:56.153Z,37.23
2018-07-22T15:57:24.807Z,36.02
2018-07-22T15:59:53.439Z,36.24
2018-07-22T16:02:22.113Z,36.80
2018-07-22T16:04:50.791Z,36.72
2018-07-22T16:07:19.468Z,36.74
2018-07-22T16:09:48.101Z,37.02
2018-07-22T16:12:16.803Z,37.16
2018-07-22T16:14:45.448Z,37.79
2018-07-22T16:17:14.114Z,37.39
2018-07-22T16:19:42.764Z,37.63
2018-07-22T16:22:11.534Z,36.99
2018-07-22T16:24:40.172Z,37.02
2018-07-22T16:27:08.825Z,37.72
2018-07-22T16:29:37.542Z,37.53
2018-07-22T16:32:06.238Z,37.55
2018-07-22T16:34:34.883Z,37.77
2018-07-22T16:37:03.560Z,37.65
2018-07-22T16:39:32.217Z,37.49
2018-07-22T16:42:00.881Z,37.27
2018-07-22T16:44:29.528Z,37.64
2018-07-22T16:46:58.209Z,37.63
2018-07-22T16:49:26.842Z,37.19
2018-07-22T16:51:55.503Z,37.24
2018-07-22T16:54:24.150Z,37.39
2018-07-22T16:56:52.796Z,37.78
2018-07-22T16:59:21.460Z,37.71
2018-07-22T17:01:50.113Z,37.29
2018-07-22T17:04:18.797Z,37.50
2018-07-22T17:06:47.436Z,37.31
2018-07-22T17:09:16.083Z,37.25
2018-07-22T17:11:44.734Z,37.55
2018-07-22T17:14:13.400Z,37.60
2018-07-22T17:16:42.067Z,38.16
2018-07-22T17:19:10.733Z,38.42
2018-07-22T17:21:39.399Z,38.69
2018-07-22T17:24:08.182Z,38.88
2018-07-22T17:26:36.826Z,39.36
2018-07-22T17:29:05.534Z,39.57
2018-07-22T17:31:34.166Z,40.49
2018-07-22T17:34:02.900Z,41.95
2018-07-22T17:36:31.576Z,42.91
2018-07-22T17:39:00.251Z,43.69
2018-07-22T17:41:28.933Z,43.99
2018-07-22T17:43:57.592Z,44.80
2018-07-22T17:46:26.274Z,45.38
2018-07-22T17:48:54.937Z,45.75
2018-07-22T17:51:23.575Z,45.67
2018-07-22T17:53:52.264Z,45.28
2018-07-22T17:56:20.896Z,45.77
2018-07-22T17:58:49.574Z,46.26
2018-07-22T18:01:18.248Z,46.73
2018-07-22T18:03:46.932Z,47.80
2018-07-22T18:06:15.592Z,47.96
2018-07-22T18:08:44.240Z,48.20
2018-07-22T18:11:12.894Z,48.74
2018-07-22T18:13:41.557Z,48.82
2018-07-22T18:16:10.215Z,49.58
2018-07-22T18:18:38.875Z,50.56
2018-07-22T18:21:07.649Z,51.01
2018-07-22T18:23:36.278Z,51.03
2018-07-22T18:26:05.001Z,51.00
2018-07-22T18:28:33.668Z,51.31
2018-07-22T18:31:02.357Z,52.29
2018-07-22T18:33:31.029Z,53.66
2018-07-22T18:35:59.687Z,55.00
2018-07-22T18:38:28.348Z,56.19
2018-07-22T18:40:57.001Z,56.86
2018-07-22T18:43:25.665Z,57.08
2018-07-22T18:45:54.303Z,56.93
2018-07-22T18:48:23.063Z,57.65
2018-07-22T18:50:51.681Z,57.52
2018-07-22T18:53:20.460Z,58.14
2018-07-22T18:55:49.095Z,58.35
2018-07-22T18:58:17.732Z,58.44
2018-07-22T19:00:46.390Z,58.04
2018-07-22T19:03:15.052Z,57.89
2018-07-22T19:05:43.745Z,58.16
2018-07-22T19:08:12.383Z,58.02
2018-07-22T19:10:41.036Z,58.09
2018-07-22T19:13:09.697Z,58.71
2018-07-22T19:15:38.394Z,59.15
2018-07-22T19:18:07.107Z,60.03
2018-07-22T19:20:35.768Z,59.97
2018-07-22T19:23:04.477Z,60.44
2018-07-22T19:25:33.140Z,61.03
2018-07-22T19:28:01.762Z,61.14
2018-07-22T19:30:30.464Z,61.52
2018-07-22T19:32:59.127Z,61.32
2018-07-22T19:35:27.774Z,61.31
2018-07-22T19:37:56.446Z,61.60
2018-07-22T19:40:25.152Z,62.06
2018-07-22T19:42:53.793Z,62.26
2018-07-22T19:45:22.465Z,62.98
2018-07-22T19:47:51.084Z,63.08
2018-07-22T19:50:19.745Z,63.40
2018-07-22T19:52:48.453Z,64.13
2018-07-22T19:55:17.120Z,64.61
2018-07-22T19:57:45.784Z,64.78
2018-07-22T20:00:14.526Z,65.14
2018-07-22T20:02:43.220Z,65.68
2018-07-22T20:05:11.941Z,65.92
2018-07-22T20:07:40.597Z,66.14
2018-07-22T20:10:09.259Z,66.27
2018-07-22T20:12:37.943Z,66.35
2018-07-22T20:15:06.629Z,66.35
2018-07-22T20:17:35.291Z,66.44
2018-07-22T20:20:04.084Z,66.61
2018-07-22T20:22:32.718Z,66.83
2018-07-22T20:25:01.374Z,67.35
2018-07-22T20:27:30.020Z,67.61
2018-07-22T20:29:58.687Z,68.05
2018-07-22T20:32:27.379Z,68.26
2018-07-22T20:34:56.048Z,68.50
2018-07-22T20:37:24.934Z,68.41
2018-07-22T20:39:53.610Z,68.56
2018-07-22T20:42:22.276Z,69.02
2018-07-22T20:44:50.956Z,69.49
2018-07-22T20:47:19.703Z,69.53
2018-07-22T20:49:48.360Z,69.95
2018-07-22T20:52:17.005Z,70.49
2018-07-22T20:54:45.700Z,70.94
2018-07-22T20:57:14.337Z,71.33
2018-07-22T20:59:43.002Z,71.67
2018-07-22T21:02:11.663Z,72.10
2018-07-22T21:04:40.341Z,72.30
2018-07-22T21:07:09.040Z,72.91
2018-07-22T21:09:37.679Z,73.17
2018-07-22T21:12:43.915Z,73.29
2018-07-22T21:15:12.956Z,73.44
2018-07-22T21:17:41.715Z,73.59
2018-07-22T21:20:10.385Z,73.46
2018-07-22T21:22:39.368Z,73.70
2018-07-22T21:25:08.040Z,73.69
2018-07-22T21:27:36.701Z,73.59
2018-07-22T21:30:06.395Z,73.47
2018-07-22T21:32:35.054Z,73.61
2018-07-22T21:35:03.772Z,73.71
2018-07-22T21:37:32.404Z,74.12
2018-07-22T21:40:01.118Z,74.62
2018-07-22T21:42:30.048Z,75.33
2018-07-22T21:44:58.691Z,75.70
2018-07-22T21:47:27.351Z,75.93
2018-07-22T21:49:56.001Z,76.27
2018-07-22T21:52:24.909Z,76.30
2018-07-22T21:54:53.564Z,76.40
2018-07-22T21:57:22.287Z,76.36
2018-07-22T21:59:50.928Z,76.62
2018-07-22T22:02:19.612Z,76.93
2018-07-22T22:04:48.298Z,76.60
2018-07-22T22:07:16.991Z,76.99
2018-07-22T22:09:45.643Z,77.39
2018-07-22T22:12:14.316Z,77.56
2018-07-22T22:14:42.953Z,78.42
2018-07-22T22:17:11.666Z,78.55
2018-07-22T22:19:40.797Z,78.85
2018-07-22T22:22:09.479Z,79.37
2018-07-22T22:24:38.172Z,80.08
2018-07-22T22:27:06.827Z,79.80
2018-07-22T22:29:35.474Z,77.78
2018-07-22T22:32:04.160Z,77.43
2018-07-22T22:34:32.805Z,77.42
2018-07-22T22:37:01.471Z,77.67
2018-07-22T22:39:30.108Z,79.84
2018-07-22T22:41:58.776Z,79.39
2018-07-22T22:44:27.408Z,80.90
2018-07-22T22:46:56.076Z,83.57
2018-07-22T22:49:24.727Z,84.25
2018-07-22T22:51:53.410Z,83.38
2018-07-22T22:54:22.062Z,82.41
2018-07-22T22:56:50.754Z,82.39
2018-07-22T22:59:22.512Z,82.73
2018-07-22T23:01:51.344Z,82.68
2018-07-22T23:04:20.018Z,82.68
2018-07-22T23:06:48.684Z,83.24
2018-07-22T23:09:17.404Z,82.77
2018-07-22T23:11:46.063Z,83.01
2018-07-22T23:14:14.743Z,83.35
2018-07-22T23:16:43.417Z,83.12
2018-07-22T23:19:12.045Z,83.43
2018-07-22T23:21:40.692Z,84.07
2018-07-22T23:24:09.331Z,84.08
2018-07-22T23:26:37.983Z,84.64
2018-07-22T23:29:06.636Z,84.84
2018-07-22T23:31:35.288Z,85.00
2018-07-22T23:34:03.922Z,85.19
2018-07-22T23:36:32.593Z,85.23
2018-07-22T23:39:01.251Z,85.25
2018-07-22T23:41:29.927Z,85.39
2018-07-22T23:43:58.580Z,86.20
2018-07-22T23:46:27.222Z,86.57
2018-07-22T23:48:55.878Z,86.41
2018-07-22T23:51:24.514Z,86.27
2018-07-22T23:53:53.167Z,85.99
2018-07-22T23:56:21.802Z,86.28
2018-07-22T23:58:50.455Z,86.45
